createdAt,value
2019-04-26T00:00:02.233Z,0.90
2019-04-26T00:02:48.210Z,0.70
2019-04-26T00:05:18.507Z,0.80
2019-04-26T00:07:48.580Z,0.67
2019-04-26T00:10:37.414Z,0.80
2019-04-26T00:13:16.156Z,0.97
2019-04-26T00:16:01.554Z,0.70
2019-04-26T00:18:31.305Z,0.83
2019-04-26T00:21:00.985Z,0.80
2019-04-26T00:23:30.708Z,0.70
2019-04-26T00:26:00.833Z,0.70
2019-04-26T00:28:30.883Z,0.90
2019-04-26T00:31:00.552Z,0.80
2019-04-26T00:33:30.225Z,0.77
2019-04-26T00:35:59.912Z,0.90
2019-04-26T00:38:29.569Z,1.20
2019-04-26T00:41:00.051Z,1.00
2019-04-26T00:43:30.093Z,1.07
2019-04-26T00:46:01.772Z,0.80
2019-04-26T00:48:32.816Z,1.20
2019-04-26T00:51:04.139Z,1.00
2019-04-26T00:53:34.987Z,0.90
2019-04-26T00:56:06.784Z,0.80
2019-04-26T00:58:37.383Z,1.00
2019-04-26T01:01:07.136Z,1.03
2019-04-26T01:03:37.059Z,1.20
2019-04-26T01:06:09.133Z,1.20
2019-04-26T01:08:38.818Z,1.20
2019-04-26T01:11:08.567Z,1.17
2019-04-26T01:13:38.223Z,0.90
2019-04-26T01:16:07.974Z,1.10
2019-04-26T01:18:37.905Z,0.83
2019-04-26T01:21:10.496Z,0.97
2019-04-26T01:23:43.220Z,0.90
2019-04-26T01:26:23.178Z,1.10
2019-04-26T01:28:58.102Z,1.07
2019-04-26T01:31:30.579Z,0.90
2019-04-26T01:34:00.330Z,1.10
2019-04-26T01:36:31.432Z,1.27
2019-04-26T01:39:08.122Z,0.90
2019-04-26T01:41:46.230Z,1.20
2019-04-26T01:44:34.342Z,1.23
2019-04-26T01:47:04.170Z,1.13
2019-04-26T01:49:34.029Z,1.20
2019-04-26T01:52:08.944Z,1.10
2019-04-26T01:54:42.460Z,1.20
2019-04-26T01:57:12.978Z,1.30
2019-04-26T01:59:47.252Z,1.47
2019-04-26T02:02:27.766Z,1.50
2019-04-26T02:05:00.660Z,1.07
2019-04-26T02:07:40.969Z,1.27
2019-04-26T02:10:17.380Z,1.17
2019-04-26T02:12:49.133Z,1.10
2019-04-26T02:15:23.021Z,1.37
2019-04-26T02:17:56.445Z,1.50
2019-04-26T02:20:53.907Z,1.43
2019-04-26T02:23:35.029Z,1.47
2019-04-26T02:26:22.744Z,1.30
2019-04-26T02:28:52.421Z,1.43
2019-04-26T02:31:22.736Z,1.60
2019-04-26T02:33:52.950Z,1.40
2019-04-26T02:36:23.381Z,1.60
2019-04-26T02:38:55.897Z,1.40
2019-04-26T02:41:27.657Z,1.93
2019-04-26T02:44:00.676Z,1.47
2019-04-26T02:46:42.281Z,1.70
2019-04-26T02:49:36.603Z,1.70
2019-04-26T02:52:14.373Z,1.40
2019-04-26T02:54:52.506Z,1.90
2019-04-26T02:57:34.237Z,1.40
2019-04-26T03:00:08.131Z,1.53
2019-04-26T03:02:40.223Z,1.47
2019-04-26T03:05:10.649Z,1.50
2019-04-26T03:08:02.894Z,1.37
2019-04-26T03:10:40.260Z,1.60
2019-04-26T03:13:20.244Z,1.60
2019-04-26T03:16:10.320Z,1.60
2019-04-26T03:18:51.435Z,1.50
2019-04-26T03:21:28.875Z,1.40
2019-04-26T03:24:19.199Z,1.37
2019-04-26T03:27:16.140Z,1.80
2019-04-26T03:30:17.381Z,1.30
2019-04-26T03:32:54.219Z,1.23
2019-04-26T03:35:56.025Z,1.50
2019-04-26T03:38:41.445Z,1.40
2019-04-26T03:41:44.455Z,1.30
2019-04-26T03:44:25.783Z,1.47
2019-04-26T03:47:00.599Z,1.40
2019-04-26T03:49:54.331Z,1.43
2019-04-26T03:52:53.150Z,1.57
2019-04-26T03:56:13.727Z,1.43
2019-04-26T03:59:07.383Z,1.43
2019-04-26T04:01:47.540Z,1.67
2019-04-26T04:04:43.413Z,1.60
2019-04-26T04:07:16.254Z,1.60
2019-04-26T04:09:50.831Z,1.70
2019-04-26T04:12:27.053Z,2.07
2019-04-26T04:15:12.773Z,1.70
2019-04-26T04:17:51.199Z,2.03
2019-04-26T04:20:46.277Z,1.73
2019-04-26T04:23:27.169Z,1.83
2019-04-26T04:26:00.177Z,2.20
2019-04-26T04:28:49.889Z,1.77
2019-04-26T04:31:29.184Z,1.90
2019-04-26T04:34:23.900Z,1.77
2019-04-26T04:36:56.837Z,2.33
2019-04-26T04:39:35.271Z,1.90
2019-04-26T04:42:34.380Z,2.00
2019-04-26T04:45:21.277Z,2.00
2019-04-26T04:48:20.435Z,2.00
2019-04-26T04:51:01.241Z,1.90
2019-04-26T04:53:55.008Z,2.20
2019-04-26T04:56:55.095Z,2.17
2019-04-26T04:59:32.024Z,2.00
2019-04-26T05:02:24.069Z,2.10
2019-04-26T05:05:16.965Z,2.10
2019-04-26T05:08:08.007Z,2.40
2019-04-26T05:10:51.985Z,1.80
2019-04-26T05:13:32.484Z,1.93
2019-04-26T05:16:32.939Z,2.10
2019-04-26T05:19:42.226Z,2.10
2019-04-26T05:22:26.649Z,1.80
2019-04-26T05:25:41.007Z,2.27
2019-04-26T05:28:22.825Z,2.00
2019-04-26T05:31:14.378Z,2.20
2019-04-26T05:33:56.851Z,1.80
2019-04-26T05:36:36.639Z,2.00
2019-04-26T05:39:40.081Z,2.10
2019-04-26T05:43:00.837Z,2.07
2019-04-26T05:46:02.815Z,2.10
2019-04-26T05:48:55.655Z,1.90
2019-04-26T05:51:59.997Z,2.10
2019-04-26T05:54:54.040Z,2.30
2019-04-26T05:57:58.577Z,2.07
2019-04-26T06:01:03.778Z,2.07
2019-04-26T06:04:39.860Z,1.50
2019-04-26T06:07:32.998Z,1.40
2019-04-26T06:10:36.229Z,1.37
2019-04-26T06:13:57.754Z,1.57
2019-04-26T06:16:57.297Z,1.50
2019-04-26T06:20:24.770Z,1.53
2019-04-26T06:23:08.860Z,1.30
2019-04-26T06:26:05.949Z,1.27
2019-04-26T06:29:01.903Z,1.47
2019-04-26T06:31:40.123Z,1.40
2019-04-26T06:34:18.900Z,1.63
2019-04-26T06:37:30.158Z,1.60
2019-04-26T06:40:18.380Z,1.57
2019-04-26T06:43:15.480Z,1.70
2019-04-26T06:46:33.102Z,1.50
2019-04-26T06:49:24.331Z,1.50
2019-04-26T06:52:02.568Z,1.33
2019-04-26T06:54:44.990Z,1.50
2019-04-26T06:58:03.117Z,1.60
2019-04-26T07:00:47.614Z,1.50
2019-04-26T07:03:29.575Z,1.40
2019-04-26T07:06:02.499Z,1.40
2019-04-26T07:08:57.766Z,1.77
2019-04-26T07:12:15.173Z,1.50
2019-04-26T07:15:37.545Z,1.43
2019-04-26T07:18:55.030Z,1.10
2019-04-26T07:22:12.756Z,1.53
2019-04-26T07:25:17.853Z,1.50
2019-04-26T07:28:05.986Z,1.50
2019-04-26T07:31:06.625Z,1.40
2019-04-26T07:34:09.910Z,1.40
2019-04-26T07:37:16.635Z,1.60
2019-04-26T07:40:34.382Z,1.67
2019-04-26T07:43:35.566Z,1.70
2019-04-26T07:46:27.176Z,1.80
2019-04-26T07:49:33.392Z,1.43
2019-04-26T07:52:49.307Z,1.80
2019-04-26T07:55:37.119Z,1.70
2019-04-26T07:58:42.844Z,1.93
2019-04-26T08:01:36.437Z,1.95
2019-04-26T08:04:11.465Z,1.95
2019-04-26T08:06:54.819Z,2.03
2019-04-26T08:09:27.832Z,2.30
2019-04-26T08:12:06.087Z,2.30
2019-04-26T08:14:48.006Z,1.90
2019-04-26T08:17:36.978Z,1.67
2019-04-26T08:20:23.192Z,2.20
2019-04-26T08:22:57.722Z,2.07
2019-04-26T08:25:31.147Z,1.73
2019-04-26T08:28:03.515Z,1.80
2019-04-26T08:30:35.536Z,1.60
2019-04-26T08:33:11.323Z,1.70
2019-04-26T08:35:44.431Z,1.63
2019-04-26T08:38:20.469Z,1.80
2019-04-26T08:40:45.039Z,1.60
2019-04-26T08:43:33.871Z,1.50
2019-04-26T08:46:21.671Z,1.60
2019-04-26T08:49:11.383Z,1.57
2019-04-26T08:51:42.828Z,1.50
2019-04-26T08:54:21.239Z,1.45
2019-04-26T08:56:58.546Z,1.72
2019-04-26T08:59:31.653Z,1.40
2019-04-26T09:02:27.655Z,1.67
2019-04-26T09:05:18.417Z,1.47
2019-04-26T09:07:53.533Z,1.50
2019-04-26T09:10:25.008Z,1.50
2019-04-26T09:12:57.065Z,1.50
2019-04-26T09:16:01.198Z,1.53
2019-04-26T09:18:42.348Z,1.67
2019-04-26T09:21:03.614Z,1.30
2019-04-26T09:23:57.963Z,1.47
2019-04-26T09:26:48.455Z,1.40
2019-04-26T09:29:32.126Z,1.57
2019-04-26T09:32:09.501Z,1.62
2019-04-26T09:34:41.237Z,1.37
2019-04-26T09:37:11.164Z,1.22
2019-04-26T09:39:42.091Z,1.60
2019-04-26T09:42:21.278Z,1.50
2019-04-26T09:44:57.740Z,1.77
2019-04-26T09:47:31.637Z,1.70
2019-04-26T09:50:23.075Z,1.62
2019-04-26T09:52:52.950Z,1.67
2019-04-26T09:55:34.563Z,1.72
2019-04-26T09:57:57.101Z,1.90
2019-04-26T10:00:29.549Z,1.62
2019-04-26T10:03:00.984Z,1.70
2019-04-26T10:05:30.732Z,1.70
2019-04-26T10:08:00.399Z,2.00
2019-04-26T10:10:35.224Z,1.77
2019-04-26T10:13:21.485Z,1.82
2019-04-26T10:16:02.484Z,1.57
2019-04-26T10:18:29.992Z,1.32
2019-04-26T10:20:59.681Z,1.55
2019-04-26T10:23:29.338Z,1.67
2019-04-26T10:25:59.017Z,2.12
2019-04-26T10:28:28.692Z,1.57
2019-04-26T10:30:58.367Z,2.77
2019-04-26T10:33:28.041Z,1.98
2019-04-26T10:35:57.860Z,1.82
2019-04-26T10:38:27.818Z,1.67
2019-04-26T10:40:57.512Z,1.55
2019-04-26T10:43:29.462Z,1.42
2019-04-26T10:45:59.294Z,1.30
2019-04-26T10:48:28.972Z,1.77
2019-04-26T10:50:58.649Z,1.70
2019-04-26T10:53:50.270Z,1.85
2019-04-26T10:56:49.635Z,1.62
2019-04-26T10:59:34.602Z,1.55
2019-04-26T11:02:06.443Z,1.90
2019-04-26T11:04:37.366Z,1.62
2019-04-26T11:07:07.472Z,2.05
2019-04-26T11:09:37.263Z,1.60
2019-04-26T11:12:09.485Z,1.60
2019-04-26T11:14:39.153Z,1.60
2019-04-26T11:17:11.548Z,1.27
2019-04-26T11:19:40.570Z,1.90
2019-04-26T11:22:10.417Z,1.75
2019-04-26T11:24:40.078Z,1.75
2019-04-26T11:27:11.168Z,2.17
2019-04-26T11:29:40.967Z,1.60
2019-04-26T11:32:11.299Z,1.67
2019-04-26T11:34:42.919Z,1.77
2019-04-26T11:37:13.479Z,1.62
2019-04-26T11:39:43.722Z,1.82
2019-04-26T11:42:13.364Z,1.60
2019-04-26T11:44:44.678Z,1.40
2019-04-26T11:47:14.675Z,1.57
2019-04-26T11:49:44.346Z,2.00
2019-04-26T11:52:14.044Z,2.10
2019-04-26T11:54:43.701Z,1.90
2019-04-26T11:57:13.675Z,2.40
2019-04-26T11:59:43.441Z,2.70
2019-04-26T12:02:16.131Z,2.27
2019-04-26T12:04:56.250Z,1.67
2019-04-26T12:07:28.829Z,1.87
2019-04-26T12:10:00.176Z,1.75
2019-04-26T12:12:29.846Z,1.87
2019-04-26T12:14:59.499Z,2.00
2019-04-26T12:17:31.240Z,2.23
2019-04-26T12:20:00.550Z,2.10
2019-04-26T12:22:30.226Z,2.10
2019-04-26T12:25:03.438Z,1.40
2019-04-26T12:27:31.943Z,1.85
2019-04-26T12:30:01.810Z,1.65
2019-04-26T12:32:31.627Z,1.80
2019-04-26T12:35:02.296Z,1.43
2019-04-26T12:37:32.355Z,1.40
2019-04-26T12:40:02.020Z,1.70
2019-04-26T12:42:32.928Z,1.60
2019-04-26T12:45:18.434Z,1.63
2019-04-26T12:47:51.127Z,1.27
2019-04-26T12:50:20.790Z,1.60
2019-04-26T12:52:51.479Z,1.53
2019-04-26T12:55:22.151Z,1.30
2019-04-26T12:57:51.828Z,1.67
2019-04-26T13:00:26.432Z,2.00
2019-04-26T13:02:56.678Z,1.80
2019-04-26T13:05:26.338Z,2.13
2019-04-26T13:07:56.187Z,1.73
2019-04-26T13:10:53.801Z,1.90
2019-04-26T13:13:42.554Z,2.17
2019-04-26T13:16:21.694Z,1.80
2019-04-26T13:18:50.730Z,1.97
2019-04-26T13:21:20.386Z,1.80
2019-04-26T13:23:50.075Z,1.80
2019-04-26T13:26:19.751Z,1.80
2019-04-26T13:28:52.402Z,1.80
2019-04-26T13:31:20.799Z,2.00
2019-04-26T13:33:50.483Z,1.70
2019-04-26T13:36:20.333Z,1.70
2019-04-26T13:38:50.017Z,1.60
2019-04-26T13:41:19.792Z,1.73
2019-04-26T13:43:49.469Z,2.00
2019-04-26T13:46:43.758Z,1.43
2019-04-26T13:49:19.232Z,2.07
2019-04-26T13:51:49.163Z,1.90
2019-04-26T13:54:21.096Z,1.93
2019-04-26T13:56:50.244Z,2.00
2019-04-26T13:59:19.927Z,2.00
2019-04-26T14:01:49.614Z,2.03
2019-04-26T14:04:19.321Z,1.90
2019-04-26T14:06:48.974Z,2.67
2019-04-26T14:09:18.739Z,1.83
2019-04-26T14:11:48.462Z,1.80
2019-04-26T14:14:18.160Z,1.83
2019-04-26T14:16:48.122Z,2.20
2019-04-26T14:19:17.838Z,2.77
2019-04-26T14:21:47.573Z,2.43
2019-04-26T14:24:33.885Z,2.83
2019-04-26T14:27:10.512Z,2.93
2019-04-26T14:29:39.257Z,2.57
2019-04-26T14:32:08.917Z,3.57
2019-04-26T14:34:40.352Z,2.80
2019-04-26T14:37:11.259Z,4.60
2019-04-26T14:39:50.132Z,3.67
2019-04-26T14:42:12.695Z,4.63
2019-04-26T14:44:49.212Z,4.57
2019-04-26T14:47:17.740Z,3.87
2019-04-26T14:49:46.212Z,4.27
2019-04-26T14:52:15.876Z,3.17
2019-04-26T14:54:46.321Z,4.20
2019-04-26T14:57:24.476Z,4.80
2019-04-26T14:59:53.155Z,4.63
2019-04-26T15:02:43.039Z,3.97
2019-04-26T15:05:22.681Z,4.63
2019-04-26T15:07:53.783Z,4.23
2019-04-26T15:10:43.481Z,3.90
2019-04-26T15:13:17.336Z,4.47
2019-04-26T15:15:37.654Z,4.70
2019-04-26T15:18:07.331Z,3.83
2019-04-26T15:20:37.874Z,4.40
2019-04-26T15:23:07.613Z,4.10
2019-04-26T15:25:37.291Z,4.00
2019-04-26T15:28:11.212Z,3.40
2019-04-26T15:30:43.318Z,4.23
2019-04-26T15:33:12.654Z,3.97
2019-04-26T15:35:42.150Z,3.33
2019-04-26T15:38:11.959Z,3.60
2019-04-26T15:41:05.389Z,3.70
2019-04-26T15:44:00.700Z,3.57
2019-04-26T15:46:48.556Z,3.77
2019-04-26T15:49:26.123Z,3.97
2019-04-26T15:51:56.349Z,4.00
2019-04-26T15:54:26.886Z,3.80
2019-04-26T15:56:56.566Z,2.47
2019-04-26T15:59:26.228Z,2.83
2019-04-26T16:01:56.387Z,3.53
2019-04-26T16:04:26.260Z,3.80
2019-04-26T16:06:56.012Z,3.37
2019-04-26T16:09:25.673Z,4.33
2019-04-26T16:11:55.386Z,4.50
2019-04-26T16:14:31.380Z,2.93
2019-04-26T16:16:58.236Z,4.10
2019-04-26T16:19:27.922Z,3.73
2019-04-26T16:21:57.593Z,3.43
2019-04-26T16:24:27.981Z,3.90
2019-04-26T16:26:58.629Z,4.17
2019-04-26T16:29:38.321Z,3.57
2019-04-26T16:32:27.026Z,3.87
2019-04-26T16:34:56.705Z,4.23
2019-04-26T16:37:26.463Z,3.80
2019-04-26T16:39:56.117Z,3.43
2019-04-26T16:42:25.833Z,4.50
2019-04-26T16:44:55.495Z,2.70
2019-04-26T16:47:25.162Z,3.70
2019-04-26T16:49:54.834Z,4.27
2019-04-26T16:52:24.491Z,3.90
2019-04-26T16:55:02.392Z,3.10
2019-04-26T16:57:25.556Z,4.43
2019-04-26T16:59:59.942Z,4.33
2019-04-26T17:02:28.190Z,4.03
2019-04-26T17:05:04.547Z,3.80
2019-04-26T17:07:29.500Z,4.70
2019-04-26T17:09:59.916Z,4.70
2019-04-26T17:12:29.802Z,4.37
2019-04-26T17:14:59.455Z,3.50
2019-04-26T17:17:29.129Z,4.27
2019-04-26T17:19:58.798Z,4.27
2019-04-26T17:22:44.507Z,4.40
2019-04-26T17:25:16.980Z,4.07
2019-04-26T17:27:47.175Z,3.60
2019-04-26T17:30:21.308Z,4.23
2019-04-26T17:32:51.520Z,4.60
2019-04-26T17:35:22.416Z,4.67
2019-04-26T17:37:52.265Z,4.77
2019-04-26T17:40:25.251Z,4.83
2019-04-26T17:42:53.288Z,3.77
2019-04-26T17:45:23.023Z,5.10
2019-04-26T17:47:52.986Z,5.60
2019-04-26T17:50:22.984Z,5.83
2019-04-26T17:52:52.640Z,5.53
2019-04-26T17:55:22.397Z,5.63
2019-04-26T17:57:52.643Z,7.13
2019-04-26T18:00:27.012Z,6.17
2019-04-26T18:02:56.912Z,6.50
2019-04-26T18:05:39.928Z,6.20
2019-04-26T18:07:59.654Z,4.53
2019-04-26T18:10:30.591Z,6.40
2019-04-26T18:13:00.499Z,5.40
2019-04-26T18:15:30.151Z,5.30
2019-04-26T18:18:14.476Z,5.53
2019-04-26T18:21:05.193Z,4.80
2019-04-26T18:23:35.207Z,5.07
2019-04-26T18:26:04.963Z,5.13
2019-04-26T18:28:34.741Z,5.47
2019-04-26T18:31:06.644Z,5.90
2019-04-26T18:33:36.329Z,4.43
2019-04-26T18:36:06.002Z,5.10
2019-04-26T18:38:35.703Z,5.20
2019-04-26T18:41:06.583Z,4.67
2019-04-26T18:43:37.187Z,3.97
2019-04-26T18:46:17.874Z,4.40
2019-04-26T18:48:47.536Z,4.13
2019-04-26T18:51:17.210Z,4.30
2019-04-26T18:54:02.817Z,4.57
2019-04-26T18:56:39.557Z,3.90
2019-04-26T18:59:11.719Z,3.53
2019-04-26T19:01:41.637Z,3.90
2019-04-26T19:04:13.571Z,3.83
2019-04-26T19:06:42.497Z,3.70
2019-04-26T19:09:15.528Z,3.37
2019-04-26T19:11:48.711Z,2.50
2019-04-26T19:14:33.421Z,3.40
2019-04-26T19:17:12.304Z,2.70
2019-04-26T19:19:52.603Z,2.40
2019-04-26T19:22:22.634Z,1.90
2019-04-26T19:24:54.128Z,1.87
2019-04-26T19:27:26.545Z,2.27
2019-04-26T19:29:55.314Z,1.80
2019-04-26T19:32:25.328Z,2.10
2019-04-26T19:34:55.154Z,2.03
2019-04-26T19:37:24.832Z,1.40
2019-04-26T19:39:54.766Z,1.90
2019-04-26T19:42:27.131Z,1.60
2019-04-26T19:45:11.821Z,1.70
2019-04-26T19:47:52.083Z,1.27
2019-04-26T19:50:48.489Z,1.47
2019-04-26T19:53:24.736Z,1.50
2019-04-26T19:56:02.791Z,1.10
2019-04-26T19:58:32.931Z,2.07
2019-04-26T20:01:04.307Z,2.10
2019-04-26T20:03:34.289Z,2.13
2019-04-26T20:06:05.038Z,3.27
2019-04-26T20:08:41.742Z,2.80
2019-04-26T20:11:06.684Z,3.90
2019-04-26T20:13:36.338Z,2.43
2019-04-26T20:16:06.425Z,3.50
2019-04-26T20:18:38.937Z,2.80
2019-04-26T20:21:12.689Z,2.73
2019-04-26T20:23:43.807Z,3.90
2019-04-26T20:26:11.946Z,5.57
2019-04-26T20:28:42.353Z,5.27
2019-04-26T20:31:29.708Z,4.80
2019-04-26T20:33:59.440Z,5.37
2019-04-26T20:36:29.198Z,4.20
2019-04-26T20:38:59.110Z,4.00
2019-04-26T20:41:28.964Z,3.23
2019-04-26T20:44:07.346Z,4.27
2019-04-26T20:46:34.364Z,4.00
2019-04-26T20:49:05.929Z,5.87
2019-04-26T20:51:32.851Z,5.73
2019-04-26T20:54:03.838Z,7.20
2019-04-26T20:56:33.853Z,6.50
2019-04-26T20:59:03.751Z,6.33
2019-04-26T21:01:33.518Z,5.33
2019-04-26T21:04:03.211Z,5.53
2019-04-26T21:06:33.896Z,6.03
2019-04-26T21:09:07.397Z,6.53
2019-04-26T21:11:38.877Z,6.50
2019-04-26T21:14:08.810Z,5.40
2019-04-26T21:16:38.689Z,6.40
2019-04-26T21:19:08.364Z,6.23
2019-04-26T21:21:41.975Z,6.10
2019-04-26T21:24:14.907Z,3.70
2019-04-26T21:27:15.567Z,6.63
2019-04-26T21:30:21.190Z,7.70
2019-04-26T21:33:08.454Z,6.60
2019-04-26T21:35:44.539Z,7.43
2019-04-26T21:38:25.562Z,5.20
2019-04-26T21:41:10.946Z,6.40
2019-04-26T21:43:38.271Z,5.47
2019-04-26T21:46:08.546Z,7.00
2019-04-26T21:48:41.884Z,6.63
2019-04-26T21:51:14.439Z,6.97
2019-04-26T21:53:42.154Z,5.80
2019-04-26T21:56:13.018Z,5.83
2019-04-26T21:58:43.585Z,5.40
2019-04-26T22:01:19.411Z,5.60
2019-04-26T22:03:54.168Z,6.27
2019-04-26T22:06:25.103Z,6.80
2019-04-26T22:09:00.028Z,6.43
2019-04-26T22:11:29.038Z,5.73
2019-04-26T22:14:13.194Z,5.87
2019-04-26T22:17:02.191Z,5.53
2019-04-26T22:20:06.626Z,4.23
2019-04-26T22:22:52.824Z,4.57
2019-04-26T22:25:24.879Z,5.70
2019-04-26T22:28:00.299Z,5.40
2019-04-26T22:30:29.449Z,4.07
2019-04-26T22:32:59.238Z,5.50
2019-04-26T22:35:28.939Z,5.50
2019-04-26T22:37:58.606Z,3.53
2019-04-26T22:40:28.287Z,4.93
2019-04-26T22:43:10.900Z,4.33
2019-04-26T22:45:54.554Z,5.03
2019-04-26T22:48:35.427Z,5.40
2019-04-26T22:51:06.173Z,6.03
2019-04-26T22:53:35.842Z,6.53
2019-04-26T22:56:05.593Z,6.60
2019-04-26T22:58:35.278Z,8.53
2019-04-26T23:01:06.247Z,7.60
2019-04-26T23:03:40.897Z,8.60
2019-04-26T23:06:11.628Z,6.97
2019-04-26T23:08:39.670Z,8.43
2019-04-26T23:11:10.728Z,9.60
2019-04-26T23:13:55.712Z,7.83
2019-04-26T23:16:35.891Z,7.70
2019-04-26T23:19:27.411Z,7.27
2019-04-26T23:21:57.876Z,11.30
2019-04-26T23:24:27.700Z,8.47
2019-04-26T23:26:57.365Z,9.30
2019-04-26T23:29:27.065Z,9.30
2019-04-26T23:31:56.743Z,9.63
2019-04-26T23:34:26.433Z,8.47
2019-04-26T23:36:56.094Z,8.90
2019-04-26T23:39:25.770Z,8.27
2019-04-26T23:41:55.506Z,8.40
2019-04-26T23:44:25.191Z,7.63
2019-04-26T23:47:01.200Z,8.63
2019-04-26T23:49:27.198Z,8.20
2019-04-26T23:51:56.854Z,8.00
2019-04-26T23:54:28.089Z,6.50
2019-04-26T23:56:58.921Z,9.03
2019-04-26T23:59:28.751Z,9.50
